ISABELLA DAM (ISB)

Elevation: 2635' · KERN R basin · Operator: US Army Corps of Engineers

Provisional data, subject to change.
Query executed Sunday at 12:05:32   clock

Select a sensor type for a plot of data.
Note: Reservoir Flows are daily averages.

Earlier

Date RES ELE    STORAGE    RES CHG    TOC STO    ABV TOC    OUTFLOW    INFLOW    FNF    PPT INC    PPTINC4    TEMP MN    TEMP MX    WINDLEN    EVP PAN   
 FEET   AF   AF   AF   AF   CFS   CFS   CFS   INCHES   INCHES   DEG F   DEG F   MILES   INCHES  
03/01/2015 2530.68 47568 -98 250297 -202729 225 181 181 0.00 0.00 3 12 141 0.09
03/02/2015 2530.67 47543 -25 255593 -208050 225 217 217 0.12 0.00 3 11 142 0.08
03/03/2015 2530.66 47519 -24 260890 -213371 225 220 220 0.00 0.12 0 13 112 0.11
03/04/2015 2530.65 47494 -25 266187 -218693 215 212 212 0.06 0.00 1 18 84 0.14
03/05/2015 2530.64 47470 -24 271484 -224014 202 203 203 0.00 0.00 1 22 139 0.19
03/06/2015 2530.64 47470 0 276780 -229310 202 214 214 0.00 0.00 1 22 105 0.17
03/07/2015 2530.63 47445 -25 282077 -234632 201 202 202 0.00 0.00 3 26 95 0.19
03/08/2015 2530.62 47421 -24 287374 -239953 201 203 203 0.00 0.00 4 24 113 0.20
03/09/2015 2530.61 47396 -25 292670 -245274 201 201 201 0.00 0.00 4 24 119 0.19
03/10/2015 2530.60 47372 -24 297967 -250595 208 209 209 0.02 0.00 5 27 85 0.19
03/11/2015 2530.57 47298 -74 303264 -255966 221 192 192 0.00 0.00 11 19 109 0.12
03/12/2015 2530.55 47249 -49 308561 -261312 220 207 207 0.00 0.00 5 20 130 0.16
03/13/2015 2530.55 47249 0 313857 -266608 215 229 229 0.00 0.00 5 28 90 0.20
03/14/2015 2530.54 47225 -24 319154 -271929 219 222 222 0.02 0.00 9 28 103 0.21
03/15/2015 2530.51 47152 -73 324451 -277299 226 201 201 0.00 0.00 11 28 79 0.17
03/16/2015 2530.49 47103 -49 329748 -282645 220 211 211 0.00 0.00 10 28 120 0.22
03/17/2015 2530.49 47103 0 334346 -285278 219 230 230 0.00 0.00 12 20 163 0.15
03/18/2015 2530.49 47103 -- 336829 -287750 234 243 243 0.00 0.00 12 19 146 0.13
03/19/2015 2530.47 47054 -49 339326 -292272 240 230 230 0.00 0.01 8 25 130 0.21
03/20/2015 2530.45 47005 -49 341806 -294801 248 240 240 0.00 0.00 7 29 116 0.24
03/21/2015 2530.40 46884 -121 344312 -297428 261 218 218 0.00 0.00 12 25 187 0.26
03/22/2015 2530.34 46738 -146 346845 -300107 254 196 196 0.00 0.00 11 22 206 0.23
03/23/2015 2530.32 46690 -48 349338 -302648 233 222 222 0.00 0.00 11 18 209 0.20
03/24/2015 2530.30 46641 -49 349126 -305200 224 213 213 0.00 0.00 9 18 249 0.20
03/25/2015 2530.30 46641 0 351578 -307667 221 236 236 0.00 0.00 7 25 115 0.21
03/26/2015 2530.30 46641 0 354021 -307380 223 239 239 0.02 0.00 7 29 95 0.24
03/27/2015 2530.28 46593 -48 356459 -309866 247 240 -- 0.03 0.00 10 30 99 0.25
03/28/2015 -- -- -- -- -- -- -- -- -- 0.00 -- -- -- --
03/29/2015 -- -- -- -- -- -- -- -- -- 0.00 -- -- -- --

Later | Latest

Warning! This data is preliminary and subject to revision.

Show ISB Map | Plot ISB Data | 1 Month ISB Data | Real-Time ISB Data | ISB Info